sensor_id;sensor_type;location;lat;lon;timestamp;P1;durP1;ratioP1;P2;durP2;ratioP2
21233;SDS011;10774;42.178;26.578;2022-08-25T00:01:42;32.92;;;6.20;;
21233;SDS011;10774;42.178;26.578;2022-08-25T00:04:11;25.30;;;5.47;;
21233;SDS011;10774;42.178;26.578;2022-08-25T00:06:40;29.75;;;5.82;;
21233;SDS011;10774;42.178;26.578;2022-08-25T00:09:07;28.65;;;6.15;;
21233;SDS011;10774;42.178;26.578;2022-08-25T00:11:34;35.38;;;6.63;;
21233;SDS011;10774;42.178;26.578;2022-08-25T00:14:02;26.73;;;6.25;;
21233;SDS011;10774;42.178;26.578;2022-08-25T00:16:31;27.80;;;6.32;;
21233;SDS011;10774;42.178;26.578;2022-08-25T00:18:58;34.40;;;6.10;;
21233;SDS011;10774;42.178;26.578;2022-08-25T00:21:27;25.70;;;5.47;;
21233;SDS011;10774;42.178;26.578;2022-08-25T00:23:53;21.83;;;6.43;;
21233;SDS011;10774;42.178;26.578;2022-08-25T00:26:18;31.65;;;6.10;;
21233;SDS011;10774;42.178;26.578;2022-08-25T00:28:46;27.70;;;6.70;;
21233;SDS011;10774;42.178;26.578;2022-08-25T00:31:12;33.78;;;6.55;;
21233;SDS011;10774;42.178;26.578;2022-08-25T00:33:40;36.10;;;6.90;;
21233;SDS011;10774;42.178;26.578;2022-08-25T00:36:07;28.40;;;6.25;;
21233;SDS011;10774;42.178;26.578;2022-08-25T00:38:36;30.40;;;6.65;;
21233;SDS011;10774;42.178;26.578;2022-08-25T00:41:02;31.20;;;6.53;;
21233;SDS011;10774;42.178;26.578;2022-08-25T00:45:58;32.33;;;6.70;;
21233;SDS011;10774;42.178;26.578;2022-08-25T00:48:24;32.95;;;7.40;;
21233;SDS011;10774;42.178;26.578;2022-08-25T00:50:49;38.42;;;7.38;;
21233;SDS011;10774;42.178;26.578;2022-08-25T00:53:15;30.67;;;6.97;;
21233;SDS011;10774;42.178;26.578;2022-08-25T00:55:40;30.08;;;6.75;;
21233;SDS011;10774;42.178;26.578;2022-08-25T00:58:13;26.20;;;6.78;;
21233;SDS011;10774;42.178;26.578;2022-08-25T01:03:17;33.47;;;7.57;;
21233;SDS011;10774;42.178;26.578;2022-08-25T01:05:44;33.83;;;7.28;;
21233;SDS011;10774;42.178;26.578;2022-08-25T01:08:11;28.15;;;6.20;;
21233;SDS011;10774;42.178;26.578;2022-08-25T01:10:38;24.67;;;7.05;;
21233;SDS011;10774;42.178;26.578;2022-08-25T01:13:11;32.17;;;6.20;;
21233;SDS011;10774;42.178;26.578;2022-08-25T01:15:40;36.17;;;7.63;;
21233;SDS011;10774;42.178;26.578;2022-08-25T01:18:05;34.20;;;7.30;;
21233;SDS011;10774;42.178;26.578;2022-08-25T01:20:32;29.60;;;7.10;;
21233;SDS011;10774;42.178;26.578;2022-08-25T01:22:58;36.42;;;7.95;;
21233;SDS011;10774;42.178;26.578;2022-08-25T01:28:12;38.35;;;6.85;;
21233;SDS011;10774;42.178;26.578;2022-08-25T01:30:38;29.95;;;7.05;;
21233;SDS011;10774;42.178;26.578;2022-08-25T01:33:04;32.28;;;6.72;;
21233;SDS011;10774;42.178;26.578;2022-08-25T01:35:31;29.77;;;7.03;;
21233;SDS011;10774;42.178;26.578;2022-08-25T01:38:02;26.58;;;6.32;;
21233;SDS011;10774;42.178;26.578;2022-08-25T01:40:28;33.90;;;7.38;;
21233;SDS011;10774;42.178;26.578;2022-08-25T01:46:01;32.00;;;7.55;;
21233;SDS011;10774;42.178;26.578;2022-08-25T01:48:26;27.00;;;7.30;;
21233;SDS011;10774;42.178;26.578;2022-08-25T01:50:51;24.58;;;7.07;;
21233;SDS011;10774;42.178;26.578;2022-08-25T01:53:27;32.05;;;7.28;;
21233;SDS011;10774;42.178;26.578;2022-08-25T01:55:54;42.10;;;7.68;;
21233;SDS011;10774;42.178;26.578;2022-08-25T01:58:27;32.28;;;6.95;;
21233;SDS011;10774;42.178;26.578;2022-08-25T02:00:55;35.20;;;7.28;;
21233;SDS011;10774;42.178;26.578;2022-08-25T02:03:22;35.28;;;7.80;;
21233;SDS011;10774;42.178;26.578;2022-08-25T02:05:49;29.70;;;7.07;;
21233;SDS011;10774;42.178;26.578;2022-08-25T02:08:16;35.78;;;6.72;;
21233;SDS011;10774;42.178;26.578;2022-08-25T02:10:42;30.98;;;6.32;;
21233;SDS011;10774;42.178;26.578;2022-08-25T02:13:08;32.53;;;6.97;;
21233;SDS011;10774;42.178;26.578;2022-08-25T02:15:34;32.85;;;6.85;;
21233;SDS011;10774;42.178;26.578;2022-08-25T02:18:04;33.22;;;6.93;;
21233;SDS011;10774;42.178;26.578;2022-08-25T02:20:29;30.90;;;7.22;;
21233;SDS011;10774;42.178;26.578;2022-08-25T02:22:55;35.70;;;6.32;;
21233;SDS011;10774;42.178;26.578;2022-08-25T02:25:20;40.83;;;7.15;;
21233;SDS011;10774;42.178;26.578;2022-08-25T02:27:46;32.78;;;7.32;;
21233;SDS011;10774;42.178;26.578;2022-08-25T02:30:12;40.13;;;7.43;;
21233;SDS011;10774;42.178;26.578;2022-08-25T02:32:39;37.55;;;6.88;;
21233;SDS011;10774;42.178;26.578;2022-08-25T02:35:05;33.25;;;6.85;;
21233;SDS011;10774;42.178;26.578;2022-08-25T02:37:31;37.67;;;6.70;;
21233;SDS011;10774;42.178;26.578;2022-08-25T02:39:57;31.45;;;6.38;;
21233;SDS011;10774;42.178;26.578;2022-08-25T02:42:24;33.92;;;6.78;;
21233;SDS011;10774;42.178;26.578;2022-08-25T02:44:49;32.55;;;6.63;;
21233;SDS011;10774;42.178;26.578;2022-08-25T02:47:15;33.50;;;6.97;;
21233;SDS011;10774;42.178;26.578;2022-08-25T02:49:40;33.25;;;7.13;;
21233;SDS011;10774;42.178;26.578;2022-08-25T02:52:06;36.08;;;7.25;;
21233;SDS011;10774;42.178;26.578;2022-08-25T02:54:32;28.05;;;6.45;;
21233;SDS011;10774;42.178;26.578;2022-08-25T02:56:58;40.80;;;7.50;;
21233;SDS011;10774;42.178;26.578;2022-08-25T02:59:24;28.40;;;6.82;;
21233;SDS011;10774;42.178;26.578;2022-08-25T03:01:49;38.42;;;7.40;;
21233;SDS011;10774;42.178;26.578;2022-08-25T03:04:15;32.58;;;6.47;;
21233;SDS011;10774;42.178;26.578;2022-08-25T03:06:40;42.85;;;7.95;;
21233;SDS011;10774;42.178;26.578;2022-08-25T03:09:06;28.98;;;6.78;;
21233;SDS011;10774;42.178;26.578;2022-08-25T03:11:32;35.92;;;6.85;;
21233;SDS011;10774;42.178;26.578;2022-08-25T03:13:58;38.33;;;7.45;;
21233;SDS011;10774;42.178;26.578;2022-08-25T03:16:23;38.53;;;6.90;;
21233;SDS011;10774;42.178;26.578;2022-08-25T03:18:49;29.45;;;6.50;;
21233;SDS011;10774;42.178;26.578;2022-08-25T03:21:15;29.85;;;7.13;;
21233;SDS011;10774;42.178;26.578;2022-08-25T03:23:41;41.45;;;7.40;;
21233;SDS011;10774;42.178;26.578;2022-08-25T03:26:08;36.65;;;7.43;;
21233;SDS011;10774;42.178;26.578;2022-08-25T03:28:52;25.20;;;7.03;;
21233;SDS011;10774;42.178;26.578;2022-08-25T03:31:20;35.55;;;7.55;;
21233;SDS011;10774;42.178;26.578;2022-08-25T03:33:46;32.63;;;6.95;;
21233;SDS011;10774;42.178;26.578;2022-08-25T03:36:13;33.83;;;7.32;;
21233;SDS011;10774;42.178;26.578;2022-08-25T03:38:39;26.20;;;6.22;;
21233;SDS011;10774;42.178;26.578;2022-08-25T03:41:17;36.05;;;7.18;;
21233;SDS011;10774;42.178;26.578;2022-08-25T03:43:46;45.90;;;7.07;;
21233;SDS011;10774;42.178;26.578;2022-08-25T03:46:25;37.95;;;7.88;;
21233;SDS011;10774;42.178;26.578;2022-08-25T03:48:53;39.20;;;8.27;;
21233;SDS011;10774;42.178;26.578;2022-08-25T03:51:23;30.05;;;7.45;;
21233;SDS011;10774;42.178;26.578;2022-08-25T03:53:57;33.25;;;7.45;;
21233;SDS011;10774;42.178;26.578;2022-08-25T03:56:23;37.08;;;7.40;;
21233;SDS011;10774;42.178;26.578;2022-08-25T03:58:49;30.08;;;7.95;;
21233;SDS011;10774;42.178;26.578;2022-08-25T04:01:15;26.75;;;7.43;;
21233;SDS011;10774;42.178;26.578;2022-08-25T04:03:41;32.80;;;7.35;;
21233;SDS011;10774;42.178;26.578;2022-08-25T04:06:07;34.60;;;7.35;;
21233;SDS011;10774;42.178;26.578;2022-08-25T04:08:32;31.60;;;7.15;;
21233;SDS011;10774;42.178;26.578;2022-08-25T04:11:03;26.05;;;7.10;;
21233;SDS011;10774;42.178;26.578;2022-08-25T04:13:41;32.17;;;7.32;;
21233;SDS011;10774;42.178;26.578;2022-08-25T04:16:11;33.33;;;8.48;;
21233;SDS011;10774;42.178;26.578;2022-08-25T04:18:43;27.80;;;7.43;;
21233;SDS011;10774;42.178;26.578;2022-08-25T04:21:10;30.73;;;7.47;;
21233;SDS011;10774;42.178;26.578;2022-08-25T04:23:37;27.02;;;6.93;;
21233;SDS011;10774;42.178;26.578;2022-08-25T04:26:28;21.13;;;6.32;;
21233;SDS011;10774;42.178;26.578;2022-08-25T04:28:54;25.55;;;7.30;;
21233;SDS011;10774;42.178;26.578;2022-08-25T04:31:21;30.30;;;7.15;;
21233;SDS011;10774;42.178;26.578;2022-08-25T04:33:46;29.77;;;7.60;;
21233;SDS011;10774;42.178;26.578;2022-08-25T04:36:12;32.83;;;8.18;;
21233;SDS011;10774;42.178;26.578;2022-08-25T04:38:39;29.45;;;7.05;;
21233;SDS011;10774;42.178;26.578;2022-08-25T04:41:06;24.63;;;7.25;;
21233;SDS011;10774;42.178;26.578;2022-08-25T04:43:34;32.50;;;7.45;;
21233;SDS011;10774;42.178;26.578;2022-08-25T04:46:08;35.95;;;6.75;;
21233;SDS011;10774;42.178;26.578;2022-08-25T04:48:37;28.27;;;7.15;;
21233;SDS011;10774;42.178;26.578;2022-08-25T04:51:09;30.92;;;7.15;;
21233;SDS011;10774;42.178;26.578;2022-08-25T04:53:37;23.73;;;6.75;;
21233;SDS011;10774;42.178;26.578;2022-08-25T04:56:07;24.70;;;6.68;;
21233;SDS011;10774;42.178;26.578;2022-08-25T04:58:34;23.80;;;6.85;;
21233;SDS011;10774;42.178;26.578;2022-08-25T05:01:07;22.95;;;6.93;;
21233;SDS011;10774;42.178;26.578;2022-08-25T05:03:35;33.15;;;7.40;;
21233;SDS011;10774;42.178;26.578;2022-08-25T05:06:02;23.40;;;6.68;;
21233;SDS011;10774;42.178;26.578;2022-08-25T05:08:29;23.98;;;7.07;;
21233;SDS011;10774;42.178;26.578;2022-08-25T05:10:55;23.35;;;6.85;;
21233;SDS011;10774;42.178;26.578;2022-08-25T05:13:22;25.00;;;6.70;;
21233;SDS011;10774;42.178;26.578;2022-08-25T05:15:55;23.02;;;6.07;;
21233;SDS011;10774;42.178;26.578;2022-08-25T05:18:24;25.42;;;7.50;;
21233;SDS011;10774;42.178;26.578;2022-08-25T05:20:51;25.48;;;6.82;;
21233;SDS011;10774;42.178;26.578;2022-08-25T05:23:18;22.05;;;6.10;;
21233;SDS011;10774;42.178;26.578;2022-08-25T05:25:45;16.40;;;6.38;;
21233;SDS011;10774;42.178;26.578;2022-08-25T05:28:11;26.90;;;6.88;;
21233;SDS011;10774;42.178;26.578;2022-08-25T05:30:38;25.63;;;7.35;;
21233;SDS011;10774;42.178;26.578;2022-08-25T05:33:06;24.17;;;7.88;;
21233;SDS011;10774;42.178;26.578;2022-08-25T05:35:32;29.55;;;7.85;;
21233;SDS011;10774;42.178;26.578;2022-08-25T05:37:58;15.52;;;7.28;;
21233;SDS011;10774;42.178;26.578;2022-08-25T05:40:23;22.60;;;7.05;;
21233;SDS011;10774;42.178;26.578;2022-08-25T05:42:49;26.27;;;6.30;;
21233;SDS011;10774;42.178;26.578;2022-08-25T05:45:15;27.92;;;6.97;;
21233;SDS011;10774;42.178;26.578;2022-08-25T05:47:41;28.23;;;7.10;;
21233;SDS011;10774;42.178;26.578;2022-08-25T05:50:07;26.98;;;7.05;;
21233;SDS011;10774;42.178;26.578;2022-08-25T05:52:33;31.35;;;7.63;;
21233;SDS011;10774;42.178;26.578;2022-08-25T05:54:58;24.08;;;8.10;;
21233;SDS011;10774;42.178;26.578;2022-08-25T05:57:24;25.38;;;7.20;;
21233;SDS011;10774;42.178;26.578;2022-08-25T05:59:49;24.30;;;7.63;;
21233;SDS011;10774;42.178;26.578;2022-08-25T06:02:15;23.48;;;7.35;;
21233;SDS011;10774;42.178;26.578;2022-08-25T06:04:59;24.90;;;7.80;;
21233;SDS011;10774;42.178;26.578;2022-08-25T06:07:24;21.52;;;6.93;;
21233;SDS011;10774;42.178;26.578;2022-08-25T06:09:49;25.05;;;6.60;;
21233;SDS011;10774;42.178;26.578;2022-08-25T06:12:15;23.10;;;7.10;;
21233;SDS011;10774;42.178;26.578;2022-08-25T06:14:41;25.40;;;7.03;;
21233;SDS011;10774;42.178;26.578;2022-08-25T06:17:07;28.92;;;7.90;;
21233;SDS011;10774;42.178;26.578;2022-08-25T06:19:33;27.75;;;6.90;;
21233;SDS011;10774;42.178;26.578;2022-08-25T06:21:58;28.70;;;6.70;;
21233;SDS011;10774;42.178;26.578;2022-08-25T06:24:24;22.90;;;6.22;;
21233;SDS011;10774;42.178;26.578;2022-08-25T06:26:51;33.47;;;6.32;;
21233;SDS011;10774;42.178;26.578;2022-08-25T06:29:17;25.48;;;7.43;;
21233;SDS011;10774;42.178;26.578;2022-08-25T06:31:43;27.00;;;6.65;;
21233;SDS011;10774;42.178;26.578;2022-08-25T06:34:10;22.17;;;6.32;;
21233;SDS011;10774;42.178;26.578;2022-08-25T06:36:36;18.65;;;8.30;;
21233;SDS011;10774;42.178;26.578;2022-08-25T06:39:02;28.60;;;7.65;;
21233;SDS011;10774;42.178;26.578;2022-08-25T06:41:28;22.70;;;8.02;;
21233;SDS011;10774;42.178;26.578;2022-08-25T06:43:54;23.10;;;6.55;;
21233;SDS011;10774;42.178;26.578;2022-08-25T06:46:22;29.60;;;7.25;;
21233;SDS011;10774;42.178;26.578;2022-08-25T06:48:50;24.38;;;6.55;;
21233;SDS011;10774;42.178;26.578;2022-08-25T06:51:17;20.33;;;7.72;;
21233;SDS011;10774;42.178;26.578;2022-08-25T06:53:45;23.50;;;8.57;;
21233;SDS011;10774;42.178;26.578;2022-08-25T06:56:13;30.65;;;8.07;;
21233;SDS011;10774;42.178;26.578;2022-08-25T06:58:39;24.60;;;6.60;;
21233;SDS011;10774;42.178;26.578;2022-08-25T07:01:09;27.50;;;6.93;;
21233;SDS011;10774;42.178;26.578;2022-08-25T07:03:35;24.40;;;6.82;;
21233;SDS011;10774;42.178;26.578;2022-08-25T07:06:01;25.70;;;6.68;;
21233;SDS011;10774;42.178;26.578;2022-08-25T07:08:26;30.52;;;5.25;;
21233;SDS011;10774;42.178;26.578;2022-08-25T07:10:52;20.42;;;5.30;;
21233;SDS011;10774;42.178;26.578;2022-08-25T07:13:17;28.20;;;6.05;;
21233;SDS011;10774;42.178;26.578;2022-08-25T07:15:42;30.17;;;5.75;;
21233;SDS011;10774;42.178;26.578;2022-08-25T07:18:08;21.40;;;5.13;;
21233;SDS011;10774;42.178;26.578;2022-08-25T07:20:35;26.42;;;5.72;;
21233;SDS011;10774;42.178;26.578;2022-08-25T07:23:02;25.80;;;5.47;;
21233;SDS011;10774;42.178;26.578;2022-08-25T07:25:27;26.33;;;5.53;;
21233;SDS011;10774;42.178;26.578;2022-08-25T07:27:53;27.73;;;5.88;;
21233;SDS011;10774;42.178;26.578;2022-08-25T07:30:19;33.22;;;7.20;;
21233;SDS011;10774;42.178;26.578;2022-08-25T07:32:44;29.45;;;8.25;;
21233;SDS011;10774;42.178;26.578;2022-08-25T07:35:10;27.20;;;5.72;;
21233;SDS011;10774;42.178;26.578;2022-08-25T07:37:48;40.25;;;6.45;;
21233;SDS011;10774;42.178;26.578;2022-08-25T07:40:20;32.85;;;5.72;;
21233;SDS011;10774;42.178;26.578;2022-08-25T07:42:48;28.38;;;5.75;;
21233;SDS011;10774;42.178;26.578;2022-08-25T07:45:15;25.65;;;5.68;;
21233;SDS011;10774;42.178;26.578;2022-08-25T07:47:41;31.02;;;6.22;;
21233;SDS011;10774;42.178;26.578;2022-08-25T07:50:07;22.35;;;5.93;;
21233;SDS011;10774;42.178;26.578;2022-08-25T07:52:34;39.60;;;6.18;;
21233;SDS011;10774;42.178;26.578;2022-08-25T07:55:00;42.83;;;7.00;;
21233;SDS011;10774;42.178;26.578;2022-08-25T07:57:26;36.78;;;6.85;;
21233;SDS011;10774;42.178;26.578;2022-08-25T07:59:53;31.05;;;6.38;;
21233;SDS011;10774;42.178;26.578;2022-08-25T08:02:19;29.92;;;5.68;;
21233;SDS011;10774;42.178;26.578;2022-08-25T08:04:48;32.53;;;5.57;;
21233;SDS011;10774;42.178;26.578;2022-08-25T08:07:20;35.00;;;6.03;;
21233;SDS011;10774;42.178;26.578;2022-08-25T08:09:47;34.60;;;6.10;;
21233;SDS011;10774;42.178;26.578;2022-08-25T08:12:12;27.10;;;4.85;;
21233;SDS011;10774;42.178;26.578;2022-08-25T08:14:38;36.65;;;5.38;;
21233;SDS011;10774;42.178;26.578;2022-08-25T08:17:04;27.02;;;5.07;;
21233;SDS011;10774;42.178;26.578;2022-08-25T08:19:32;26.17;;;4.97;;
21233;SDS011;10774;42.178;26.578;2022-08-25T08:21:58;30.30;;;4.90;;
21233;SDS011;10774;42.178;26.578;2022-08-25T08:24:24;30.55;;;5.47;;
21233;SDS011;10774;42.178;26.578;2022-08-25T08:26:49;31.10;;;5.00;;
21233;SDS011;10774;42.178;26.578;2022-08-25T08:29:15;19.58;;;4.70;;
21233;SDS011;10774;42.178;26.578;2022-08-25T08:31:40;35.25;;;5.28;;
21233;SDS011;10774;42.178;26.578;2022-08-25T08:34:06;33.42;;;5.32;;
21233;SDS011;10774;42.178;26.578;2022-08-25T08:36:31;26.95;;;5.25;;
21233;SDS011;10774;42.178;26.578;2022-08-25T08:38:57;32.00;;;4.93;;
21233;SDS011;10774;42.178;26.578;2022-08-25T08:47:03;18.52;;;4.63;;
21233;SDS011;10774;42.178;26.578;2022-08-25T08:52:18;28.40;;;4.70;;
21233;SDS011;10774;42.178;26.578;2022-08-25T08:54:49;20.35;;;3.97;;
21233;SDS011;10774;42.178;26.578;2022-08-25T08:57:23;23.95;;;4.57;;
21233;SDS011;10774;42.178;26.578;2022-08-25T08:59:53;21.55;;;4.30;;
21233;SDS011;10774;42.178;26.578;2022-08-25T09:02:24;25.20;;;4.82;;
21233;SDS011;10774;42.178;26.578;2022-08-25T09:05:00;24.77;;;4.38;;
21233;SDS011;10774;42.178;26.578;2022-08-25T09:07:29;19.65;;;3.97;;
21233;SDS011;10774;42.178;26.578;2022-08-25T09:09:59;17.50;;;4.30;;
21233;SDS011;10774;42.178;26.578;2022-08-25T09:12:30;19.08;;;3.90;;
21233;SDS011;10774;42.178;26.578;2022-08-25T09:20:50;21.35;;;4.50;;
21233;SDS011;10774;42.178;26.578;2022-08-25T09:29:00;21.23;;;4.10;;
21233;SDS011;10774;42.178;26.578;2022-08-25T09:31:35;27.13;;;4.20;;
21233;SDS011;10774;42.178;26.578;2022-08-25T09:34:03;23.25;;;3.97;;
21233;SDS011;10774;42.178;26.578;2022-08-25T09:36:31;31.90;;;4.82;;
21233;SDS011;10774;42.178;26.578;2022-08-25T09:38:58;20.67;;;3.58;;
21233;SDS011;10774;42.178;26.578;2022-08-25T09:41:41;21.25;;;4.45;;
21233;SDS011;10774;42.178;26.578;2022-08-25T09:46:53;18.83;;;3.72;;
21233;SDS011;10774;42.178;26.578;2022-08-25T09:49:30;22.67;;;3.97;;
21233;SDS011;10774;42.178;26.578;2022-08-25T09:54:53;24.42;;;4.47;;
21233;SDS011;10774;42.178;26.578;2022-08-25T09:57:54;20.73;;;4.07;;
21233;SDS011;10774;42.178;26.578;2022-08-25T10:00:20;24.42;;;4.47;;
21233;SDS011;10774;42.178;26.578;2022-08-25T10:03:01;24.95;;;4.15;;
21233;SDS011;10774;42.178;26.578;2022-08-25T10:06:17;21.80;;;4.10;;
21233;SDS011;10774;42.178;26.578;2022-08-25T10:08:40;24.38;;;4.63;;
21233;SDS011;10774;42.178;26.578;2022-08-25T10:14:06;22.95;;;4.80;;
21233;SDS011;10774;42.178;26.578;2022-08-25T10:16:41;23.92;;;4.45;;
21233;SDS011;10774;42.178;26.578;2022-08-25T10:19:12;26.48;;;4.35;;
21233;SDS011;10774;42.178;26.578;2022-08-25T10:22:00;19.00;;;4.22;;
21233;SDS011;10774;42.178;26.578;2022-08-25T10:24:28;23.95;;;4.72;;
21233;SDS011;10774;42.178;26.578;2022-08-25T10:35:52;30.50;;;5.25;;
21233;SDS011;10774;42.178;26.578;2022-08-25T10:38:34;18.63;;;3.60;;
21233;SDS011;10774;42.178;26.578;2022-08-25T10:46:42;18.55;;;4.80;;
21233;SDS011;10774;42.178;26.578;2022-08-25T10:49:23;25.92;;;4.95;;
21233;SDS011;10774;42.178;26.578;2022-08-25T10:52:10;17.38;;;4.50;;
21233;SDS011;10774;42.178;26.578;2022-08-25T11:00:22;19.90;;;4.20;;
21233;SDS011;10774;42.178;26.578;2022-08-25T11:05:27;17.50;;;4.28;;
21233;SDS011;10774;42.178;26.578;2022-08-25T11:08:09;21.10;;;4.32;;
21233;SDS011;10774;42.178;26.578;2022-08-25T11:10:42;26.73;;;4.75;;
21233;SDS011;10774;42.178;26.578;2022-08-25T11:13:37;25.25;;;4.63;;
21233;SDS011;10774;42.178;26.578;2022-08-25T11:16:13;20.08;;;5.03;;
21233;SDS011;10774;42.178;26.578;2022-08-25T11:18:48;24.67;;;4.72;;
21233;SDS011;10774;42.178;26.578;2022-08-25T11:21:41;26.02;;;4.55;;
21233;SDS011;10774;42.178;26.578;2022-08-25T11:26:43;30.42;;;5.40;;
21233;SDS011;10774;42.178;26.578;2022-08-25T11:29:16;22.23;;;4.78;;
21233;SDS011;10774;42.178;26.578;2022-08-25T11:31:46;29.27;;;4.85;;
21233;SDS011;10774;42.178;26.578;2022-08-25T11:34:15;20.90;;;4.75;;
21233;SDS011;10774;42.178;26.578;2022-08-25T11:36:47;26.33;;;4.60;;
21233;SDS011;10774;42.178;26.578;2022-08-25T11:45:29;19.60;;;4.60;;
21233;SDS011;10774;42.178;26.578;2022-08-25T11:48:09;25.50;;;4.60;;
21233;SDS011;10774;42.178;26.578;2022-08-25T11:51:06;28.45;;;4.85;;
21233;SDS011;10774;42.178;26.578;2022-08-25T11:53:35;17.88;;;4.20;;
21233;SDS011;10774;42.178;26.578;2022-08-25T11:56:12;19.42;;;4.20;;
21233;SDS011;10774;42.178;26.578;2022-08-25T11:59:02;31.13;;;4.28;;
21233;SDS011;10774;42.178;26.578;2022-08-25T12:04:12;22.73;;;4.40;;
21233;SDS011;10774;42.178;26.578;2022-08-25T12:09:23;15.32;;;3.70;;
21233;SDS011;10774;42.178;26.578;2022-08-25T12:11:53;21.17;;;4.40;;
21233;SDS011;10774;42.178;26.578;2022-08-25T12:19:23;28.25;;;4.70;;
21233;SDS011;10774;42.178;26.578;2022-08-25T12:35:31;15.55;;;3.85;;
21233;SDS011;10774;42.178;26.578;2022-08-25T12:38:16;14.48;;;3.92;;
21233;SDS011;10774;42.178;26.578;2022-08-25T12:41:01;19.95;;;3.58;;
21233;SDS011;10774;42.178;26.578;2022-08-25T12:43:33;21.40;;;4.68;;
21233;SDS011;10774;42.178;26.578;2022-08-25T12:51:20;20.10;;;4.45;;
21233;SDS011;10774;42.178;26.578;2022-08-25T12:54:19;20.42;;;4.32;;
21233;SDS011;10774;42.178;26.578;2022-08-25T12:56:56;21.20;;;4.50;;
21233;SDS011;10774;42.178;26.578;2022-08-25T12:59:35;16.88;;;3.67;;
21233;SDS011;10774;42.178;26.578;2022-08-25T13:10:39;25.58;;;4.72;;
21233;SDS011;10774;42.178;26.578;2022-08-25T13:15:58;27.40;;;6.53;;
21233;SDS011;10774;42.178;26.578;2022-08-25T13:18:28;30.65;;;8.60;;
21233;SDS011;10774;42.178;26.578;2022-08-25T13:23:55;31.23;;;7.72;;
21233;SDS011;10774;42.178;26.578;2022-08-25T13:26:27;32.10;;;7.88;;
21233;SDS011;10774;42.178;26.578;2022-08-25T13:31:51;18.05;;;5.10;;
21233;SDS011;10774;42.178;26.578;2022-08-25T13:34:23;16.45;;;4.78;;
21233;SDS011;10774;42.178;26.578;2022-08-25T13:36:50;18.83;;;5.55;;
21233;SDS011;10774;42.178;26.578;2022-08-25T13:39:35;24.90;;;6.93;;
21233;SDS011;10774;42.178;26.578;2022-08-25T13:42:03;24.90;;;7.32;;
21233;SDS011;10774;42.178;26.578;2022-08-25T13:44:33;21.85;;;5.85;;
21233;SDS011;10774;42.178;26.578;2022-08-25T13:47:04;13.98;;;4.65;;
21233;SDS011;10774;42.178;26.578;2022-08-25T13:49:30;13.05;;;4.68;;
21233;SDS011;10774;42.178;26.578;2022-08-25T13:51:56;18.98;;;4.57;;
21233;SDS011;10774;42.178;26.578;2022-08-25T13:54:27;18.20;;;4.75;;
21233;SDS011;10774;42.178;26.578;2022-08-25T13:59:39;14.43;;;4.63;;
21233;SDS011;10774;42.178;26.578;2022-08-25T14:02:07;17.20;;;5.90;;
21233;SDS011;10774;42.178;26.578;2022-08-25T14:10:30;18.85;;;5.63;;
21233;SDS011;10774;42.178;26.578;2022-08-25T14:12:31;17.20;;;5.13;;
21233;SDS011;10774;42.178;26.578;2022-08-25T14:15:01;21.20;;;5.38;;
21233;SDS011;10774;42.178;26.578;2022-08-25T14:17:35;14.68;;;4.63;;
21233;SDS011;10774;42.178;26.578;2022-08-25T14:20:03;16.92;;;4.97;;
21233;SDS011;10774;42.178;26.578;2022-08-25T14:22:29;15.23;;;5.10;;
21233;SDS011;10774;42.178;26.578;2022-08-25T14:24:55;15.35;;;4.97;;
21233;SDS011;10774;42.178;26.578;2022-08-25T14:27:20;18.42;;;5.50;;
21233;SDS011;10774;42.178;26.578;2022-08-25T14:29:46;18.98;;;5.85;;
21233;SDS011;10774;42.178;26.578;2022-08-25T14:32:12;20.90;;;6.93;;
21233;SDS011;10774;42.178;26.578;2022-08-25T14:34:40;18.65;;;5.60;;
21233;SDS011;10774;42.178;26.578;2022-08-25T14:37:16;14.05;;;5.45;;
21233;SDS011;10774;42.178;26.578;2022-08-25T14:39:44;15.82;;;5.20;;
21233;SDS011;10774;42.178;26.578;2022-08-25T14:42:10;15.15;;;6.20;;
21233;SDS011;10774;42.178;26.578;2022-08-25T14:44:36;19.38;;;6.07;;
21233;SDS011;10774;42.178;26.578;2022-08-25T14:47:01;23.95;;;6.25;;
21233;SDS011;10774;42.178;26.578;2022-08-25T14:49:28;18.02;;;5.68;;
21233;SDS011;10774;42.178;26.578;2022-08-25T14:52:00;19.23;;;5.85;;
21233;SDS011;10774;42.178;26.578;2022-08-25T14:54:32;22.77;;;5.82;;
21233;SDS011;10774;42.178;26.578;2022-08-25T14:56:58;13.90;;;5.80;;
21233;SDS011;10774;42.178;26.578;2022-08-25T14:59:23;24.13;;;6.75;;
21233;SDS011;10774;42.178;26.578;2022-08-25T15:01:49;19.40;;;6.38;;
21233;SDS011;10774;42.178;26.578;2022-08-25T15:04:20;20.08;;;7.05;;
21233;SDS011;10774;42.178;26.578;2022-08-25T15:06:52;16.33;;;6.78;;
21233;SDS011;10774;42.178;26.578;2022-08-25T15:09:20;15.35;;;6.30;;
21233;SDS011;10774;42.178;26.578;2022-08-25T15:11:46;17.35;;;6.15;;
21233;SDS011;10774;42.178;26.578;2022-08-25T15:14:15;16.67;;;6.53;;
21233;SDS011;10774;42.178;26.578;2022-08-25T15:16:43;15.05;;;6.13;;
21233;SDS011;10774;42.178;26.578;2022-08-25T15:19:16;20.45;;;6.18;;
21233;SDS011;10774;42.178;26.578;2022-08-25T15:21:44;19.13;;;6.20;;
21233;SDS011;10774;42.178;26.578;2022-08-25T15:24:11;16.15;;;6.05;;
21233;SDS011;10774;42.178;26.578;2022-08-25T15:26:43;19.35;;;6.40;;
21233;SDS011;10774;42.178;26.578;2022-08-25T15:29:11;20.77;;;6.95;;
21233;SDS011;10774;42.178;26.578;2022-08-25T15:31:37;14.30;;;6.80;;
21233;SDS011;10774;42.178;26.578;2022-08-25T15:34:06;16.23;;;6.68;;
21233;SDS011;10774;42.178;26.578;2022-08-25T15:36:33;21.10;;;6.80;;
21233;SDS011;10774;42.178;26.578;2022-08-25T15:39:00;17.35;;;6.60;;
21233;SDS011;10774;42.178;26.578;2022-08-25T15:41:27;15.25;;;5.90;;
21233;SDS011;10774;42.178;26.578;2022-08-25T15:43:54;16.13;;;6.22;;
21233;SDS011;10774;42.178;26.578;2022-08-25T15:46:20;20.50;;;6.65;;
21233;SDS011;10774;42.178;26.578;2022-08-25T15:48:48;16.73;;;6.55;;
21233;SDS011;10774;42.178;26.578;2022-08-25T15:51:14;17.88;;;6.28;;
21233;SDS011;10774;42.178;26.578;2022-08-25T15:53:41;21.73;;;6.53;;
21233;SDS011;10774;42.178;26.578;2022-08-25T15:56:07;17.70;;;6.88;;
21233;SDS011;10774;42.178;26.578;2022-08-25T15:58:33;25.85;;;7.90;;
21233;SDS011;10774;42.178;26.578;2022-08-25T16:00:59;22.10;;;6.85;;
21233;SDS011;10774;42.178;26.578;2022-08-25T16:03:25;22.75;;;7.70;;
21233;SDS011;10774;42.178;26.578;2022-08-25T16:05:51;23.25;;;7.85;;
21233;SDS011;10774;42.178;26.578;2022-08-25T16:08:16;23.10;;;9.50;;
21233;SDS011;10774;42.178;26.578;2022-08-25T16:10:42;25.92;;;10.63;;
21233;SDS011;10774;42.178;26.578;2022-08-25T16:13:08;21.60;;;8.38;;
21233;SDS011;10774;42.178;26.578;2022-08-25T16:15:34;22.25;;;7.85;;
21233;SDS011;10774;42.178;26.578;2022-08-25T16:18:00;22.60;;;8.00;;
21233;SDS011;10774;42.178;26.578;2022-08-25T16:20:28;17.10;;;6.88;;
21233;SDS011;10774;42.178;26.578;2022-08-25T16:22:54;14.25;;;5.78;;
21233;SDS011;10774;42.178;26.578;2022-08-25T16:25:20;18.42;;;7.50;;
21233;SDS011;10774;42.178;26.578;2022-08-25T16:27:46;21.02;;;7.03;;
21233;SDS011;10774;42.178;26.578;2022-08-25T16:30:12;17.88;;;6.28;;
21233;SDS011;10774;42.178;26.578;2022-08-25T16:32:38;12.02;;;4.95;;
21233;SDS011;10774;42.178;26.578;2022-08-25T16:35:04;16.33;;;5.72;;
21233;SDS011;10774;42.178;26.578;2022-08-25T16:37:31;15.30;;;5.45;;